createdAt,value
2018-12-31T00:00:09.573Z,18.82
2018-12-31T00:02:39.465Z,26.52
2018-12-31T00:05:08.549Z,24.27
2018-12-31T00:07:37.662Z,19.20
2018-12-31T00:10:06.755Z,19.80
2018-12-31T00:12:35.869Z,21.02
2018-12-31T00:15:05.230Z,24.15
2018-12-31T00:17:34.344Z,19.85
2018-12-31T00:20:03.910Z,17.82
2018-12-31T00:22:33.023Z,18.95
2018-12-31T00:25:02.121Z,25.52
2018-12-31T00:27:31.237Z,19.82
2018-12-31T00:30:00.329Z,25.65
2018-12-31T00:32:29.451Z,24.12
2018-12-31T00:34:58.547Z,22.35
2018-12-31T00:37:27.667Z,27.67
2018-12-31T00:39:56.757Z,17.60
2018-12-31T00:42:25.883Z,26.20
2018-12-31T00:44:54.975Z,32.00
2018-12-31T00:47:24.091Z,19.00
2018-12-31T00:49:53.181Z,24.90
2018-12-31T00:52:22.294Z,23.87
2018-12-31T00:54:51.392Z,28.25
2018-12-31T00:57:20.514Z,21.50
2018-12-31T00:59:49.607Z,20.43
2018-12-31T01:02:18.698Z,22.13
2018-12-31T01:04:47.894Z,27.60
2018-12-31T01:07:16.986Z,16.93
2018-12-31T01:09:46.101Z,28.10
2018-12-31T01:12:15.193Z,26.17
2018-12-31T01:14:44.307Z,17.37
2018-12-31T01:17:13.397Z,24.47
2018-12-31T01:19:42.518Z,25.37
2018-12-31T01:22:11.610Z,22.32
2018-12-31T01:24:40.730Z,18.25
2018-12-31T01:27:09.821Z,17.05
2018-12-31T01:29:38.937Z,24.70
2018-12-31T01:32:08.030Z,21.62
2018-12-31T01:34:37.147Z,28.90
2018-12-31T01:37:06.245Z,26.87
2018-12-31T01:39:35.359Z,21.07
2018-12-31T01:42:04.454Z,29.72
2018-12-31T01:44:33.567Z,22.60
2018-12-31T01:47:02.665Z,34.98
2018-12-31T01:49:31.777Z,31.40
2018-12-31T01:52:00.879Z,42.55
2018-12-31T01:54:30.372Z,23.10
2018-12-31T01:56:59.477Z,21.77
2018-12-31T01:59:28.595Z,29.12
2018-12-31T02:01:57.687Z,35.52
2018-12-31T02:04:26.797Z,25.48
2018-12-31T02:06:55.994Z,27.30
2018-12-31T02:09:25.113Z,29.40
2018-12-31T02:11:54.217Z,25.88
2018-12-31T02:14:23.348Z,41.35
2018-12-31T02:16:52.442Z,35.30
2018-12-31T02:19:21.569Z,32.25
2018-12-31T02:21:50.669Z,36.15
2018-12-31T02:24:19.790Z,33.65
2018-12-31T02:26:48.889Z,42.55
2018-12-31T02:29:18.018Z,36.63
2018-12-31T02:31:47.119Z,32.35
2018-12-31T02:34:16.245Z,29.37
2018-12-31T02:36:45.348Z,34.63
2018-12-31T02:39:14.483Z,39.73
2018-12-31T02:41:43.565Z,33.73
2018-12-31T02:44:12.692Z,32.33
2018-12-31T02:46:41.788Z,34.15
2018-12-31T02:49:10.911Z,29.85
2018-12-31T02:51:40.014Z,39.88
2018-12-31T02:54:09.140Z,41.10
2018-12-31T02:56:38.237Z,37.65
2018-12-31T02:59:07.355Z,40.85
2018-12-31T03:01:36.456Z,42.30
2018-12-31T03:04:05.580Z,34.75
2018-12-31T03:06:34.666Z,39.05
2018-12-31T03:09:05.362Z,44.60
2018-12-31T03:11:34.467Z,38.40
2018-12-31T03:14:03.589Z,37.05
2018-12-31T03:16:32.750Z,25.60
2018-12-31T03:19:01.886Z,32.63
2018-12-31T03:21:30.992Z,44.90
2018-12-31T03:24:00.115Z,38.88
2018-12-31T03:26:29.214Z,39.42
2018-12-31T03:28:58.312Z,43.10
2018-12-31T03:31:27.431Z,50.17
2018-12-31T03:33:56.535Z,50.65
2018-12-31T03:36:25.650Z,43.35
2018-12-31T03:38:54.769Z,40.10
2018-12-31T03:41:23.887Z,36.13
2018-12-31T03:43:52.986Z,48.65
2018-12-31T03:46:22.117Z,36.58
2018-12-31T03:48:51.223Z,44.15
2018-12-31T03:51:20.327Z,39.90
2018-12-31T03:53:49.431Z,44.90
2018-12-31T03:56:18.571Z,38.30
2018-12-31T03:58:47.674Z,36.83
2018-12-31T04:01:16.803Z,43.48
2018-12-31T04:03:45.894Z,45.00
2018-12-31T04:06:15.023Z,41.37
2018-12-31T04:08:44.124Z,37.58
2018-12-31T04:11:13.250Z,41.23
2018-12-31T04:13:42.465Z,36.60
2018-12-31T04:16:11.553Z,30.88
2018-12-31T04:18:40.653Z,42.78
2018-12-31T04:21:09.772Z,42.55
2018-12-31T04:23:38.878Z,37.67
2018-12-31T04:26:08.003Z,44.75
2018-12-31T04:28:37.102Z,43.45
2018-12-31T04:31:06.219Z,42.33
2018-12-31T04:33:35.314Z,33.42
2018-12-31T04:36:04.437Z,30.68
2018-12-31T04:38:33.529Z,33.23
2018-12-31T04:41:02.657Z,34.25
2018-12-31T04:43:31.750Z,31.17
2018-12-31T04:46:00.875Z,34.88
2018-12-31T04:48:29.988Z,38.02
2018-12-31T04:50:59.115Z,31.73
2018-12-31T04:53:28.219Z,50.28
2018-12-31T04:55:57.335Z,34.33
2018-12-31T04:58:26.450Z,45.50
2018-12-31T05:00:55.593Z,46.63
2018-12-31T05:03:24.686Z,48.52
2018-12-31T05:05:53.810Z,44.73
2018-12-31T05:08:22.909Z,39.73
2018-12-31T05:10:52.021Z,45.28
2018-12-31T05:13:21.133Z,49.10
2018-12-31T05:15:50.262Z,52.45
2018-12-31T05:18:19.377Z,51.08
2018-12-31T05:20:48.485Z,54.53
2018-12-31T05:23:17.589Z,43.17
2018-12-31T05:25:46.715Z,52.70
2018-12-31T05:28:15.818Z,51.68
2018-12-31T05:30:53.600Z,67.42
2018-12-31T05:33:22.709Z,56.23
2018-12-31T05:35:51.838Z,51.58
2018-12-31T05:38:20.955Z,60.92
2018-12-31T05:40:50.083Z,66.87
2018-12-31T05:43:38.601Z,58.75
2018-12-31T05:46:07.730Z,50.73
2018-12-31T05:48:36.837Z,60.35
2018-12-31T05:51:05.966Z,50.60
2018-12-31T05:53:35.087Z,48.38
2018-12-31T05:56:04.376Z,56.02
2018-12-31T05:58:33.472Z,54.67
2018-12-31T06:01:02.598Z,60.28
2018-12-31T06:03:31.698Z,60.58
2018-12-31T06:06:00.814Z,57.27
2018-12-31T06:08:29.920Z,60.28
2018-12-31T06:10:59.046Z,78.72
2018-12-31T06:13:28.154Z,61.90
2018-12-31T06:15:57.407Z,67.03
2018-12-31T06:18:26.504Z,74.58
2018-12-31T06:20:55.605Z,57.20
2018-12-31T06:23:24.730Z,54.27
2018-12-31T06:25:53.834Z,58.42
2018-12-31T06:28:22.962Z,70.47
2018-12-31T06:30:52.121Z,65.10
2018-12-31T06:33:21.239Z,79.17
2018-12-31T06:35:50.342Z,65.67
2018-12-31T06:38:19.469Z,87.17
2018-12-31T06:40:48.577Z,66.15
2018-12-31T06:43:17.701Z,69.70
2018-12-31T06:45:46.801Z,79.05
2018-12-31T06:48:15.928Z,79.37
2018-12-31T06:50:45.034Z,82.33
2018-12-31T06:53:14.156Z,74.07
2018-12-31T06:55:43.258Z,79.12
2018-12-31T06:58:12.383Z,66.12
2018-12-31T07:00:41.478Z,73.55
2018-12-31T07:03:10.596Z,73.78
2018-12-31T07:05:39.690Z,79.85
2018-12-31T07:08:08.824Z,68.17
2018-12-31T07:10:37.924Z,58.38
2018-12-31T07:13:07.048Z,54.42
2018-12-31T07:15:36.156Z,65.03
2018-12-31T07:18:05.270Z,67.97
2018-12-31T07:20:34.370Z,71.05
2018-12-31T07:23:03.492Z,70.37
2018-12-31T07:25:32.597Z,61.88
2018-12-31T07:28:01.715Z,64.27
2018-12-31T07:30:30.818Z,61.48
2018-12-31T07:32:59.943Z,69.22
2018-12-31T07:35:29.045Z,68.85
2018-12-31T07:37:58.163Z,58.02
2018-12-31T07:40:27.267Z,63.25
2018-12-31T07:42:56.390Z,63.63
2018-12-31T07:45:25.494Z,57.05
2018-12-31T07:47:54.619Z,70.62
2018-12-31T07:50:23.730Z,72.40
2018-12-31T07:52:52.850Z,75.95
2018-12-31T07:55:21.953Z,80.03
2018-12-31T07:57:51.082Z,76.02
2018-12-31T08:00:20.180Z,70.83
2018-12-31T08:02:49.306Z,69.22
2018-12-31T08:05:18.403Z,69.35
2018-12-31T08:07:47.522Z,69.15
2018-12-31T08:10:16.637Z,66.00
2018-12-31T08:12:45.761Z,73.78
2018-12-31T08:15:14.865Z,85.77
2018-12-31T08:17:43.998Z,70.08
2018-12-31T08:20:13.095Z,71.80
2018-12-31T08:22:42.224Z,68.20
2018-12-31T08:25:11.328Z,72.55
2018-12-31T08:27:40.459Z,71.60
2018-12-31T08:30:09.563Z,68.15
2018-12-31T08:32:38.803Z,70.70
2018-12-31T08:35:07.886Z,70.90
2018-12-31T08:37:37.011Z,73.78
2018-12-31T08:40:06.272Z,72.60
2018-12-31T08:42:35.501Z,64.42
2018-12-31T08:45:05.812Z,78.25
2018-12-31T08:47:34.990Z,76.37
2018-12-31T08:50:04.709Z,63.40
2018-12-31T08:52:33.837Z,63.52
2018-12-31T08:55:02.944Z,61.28
2018-12-31T08:57:32.140Z,57.80
2018-12-31T09:00:01.506Z,56.80
2018-12-31T09:02:31.233Z,51.73
2018-12-31T09:05:00.325Z,58.55
2018-12-31T09:07:29.509Z,53.48
2018-12-31T09:09:58.625Z,58.95
2018-12-31T09:12:27.731Z,54.67
2018-12-31T09:14:56.857Z,55.60
2018-12-31T09:17:25.957Z,46.80
2018-12-31T09:19:55.146Z,60.10
2018-12-31T09:22:24.423Z,51.70
2018-12-31T09:24:53.544Z,45.00
2018-12-31T09:27:22.743Z,43.90
2018-12-31T09:29:51.867Z,44.67
2018-12-31T09:32:20.978Z,42.30
2018-12-31T09:34:50.416Z,43.87
2018-12-31T09:37:19.599Z,49.18
2018-12-31T09:39:48.694Z,37.28
2018-12-31T09:42:17.881Z,39.75
2018-12-31T09:44:46.998Z,43.25
2018-12-31T09:47:16.090Z,36.25
2018-12-31T09:49:45.307Z,35.55
2018-12-31T09:52:14.387Z,41.98
2018-12-31T09:54:43.516Z,30.68
2018-12-31T09:57:12.629Z,31.68
2018-12-31T09:59:41.752Z,44.55
2018-12-31T10:02:10.852Z,43.35
2018-12-31T10:04:39.970Z,44.40
2018-12-31T10:07:09.072Z,39.00
2018-12-31T10:09:38.189Z,29.02
2018-12-31T10:12:07.313Z,32.45
2018-12-31T10:14:36.434Z,29.25
2018-12-31T10:17:05.606Z,35.80
2018-12-31T10:19:34.726Z,33.78
2018-12-31T10:22:03.860Z,35.92
2018-12-31T10:24:35.733Z,31.45
2018-12-31T10:27:04.844Z,35.90
2018-12-31T10:29:36.203Z,36.85
2018-12-31T10:32:06.342Z,33.78
2018-12-31T10:34:35.474Z,34.45
2018-12-31T10:37:04.614Z,28.07
2018-12-31T10:39:33.741Z,39.25
2018-12-31T10:42:02.837Z,35.50
2018-12-31T10:44:31.962Z,27.82
2018-12-31T10:47:01.063Z,27.25
2018-12-31T10:49:30.197Z,32.80
2018-12-31T10:51:59.289Z,30.20
2018-12-31T10:54:28.401Z,27.93
2018-12-31T10:56:57.501Z,26.65
2018-12-31T10:59:26.628Z,23.18
2018-12-31T11:01:55.720Z,30.75
2018-12-31T11:04:24.860Z,25.43
2018-12-31T11:06:53.948Z,28.27
2018-12-31T11:09:23.070Z,22.82
2018-12-31T11:11:52.169Z,25.95
2018-12-31T11:14:21.295Z,31.68
2018-12-31T11:16:50.396Z,23.65
2018-12-31T11:19:19.520Z,23.40
2018-12-31T11:21:48.748Z,22.70
2018-12-31T11:24:17.829Z,25.65
2018-12-31T11:26:46.963Z,24.85
2018-12-31T11:29:16.048Z,29.20
2018-12-31T11:31:46.311Z,30.90
2018-12-31T11:34:15.431Z,23.47
2018-12-31T11:36:44.549Z,25.52
2018-12-31T11:39:13.644Z,22.20
2018-12-31T11:41:42.764Z,26.10
2018-12-31T11:44:11.857Z,24.60
2018-12-31T11:46:40.982Z,24.45
2018-12-31T11:49:10.077Z,21.75
2018-12-31T11:51:39.196Z,22.90
2018-12-31T11:54:08.295Z,21.42
2018-12-31T11:56:37.417Z,19.50
2018-12-31T11:59:06.505Z,21.60
2018-12-31T12:01:35.632Z,20.85
2018-12-31T12:04:04.733Z,16.97
2018-12-31T12:06:33.862Z,19.82
2018-12-31T12:09:03.931Z,20.72
2018-12-31T12:11:33.065Z,17.02
2018-12-31T12:14:02.165Z,19.35
2018-12-31T12:16:31.298Z,19.73
2018-12-31T12:19:00.401Z,24.23
2018-12-31T12:21:29.541Z,22.05
2018-12-31T12:23:58.645Z,19.55
2018-12-31T12:26:27.768Z,20.88
2018-12-31T12:28:56.860Z,21.68
2018-12-31T12:31:25.989Z,20.52
2018-12-31T12:33:55.088Z,21.75
2018-12-31T12:36:24.214Z,18.62
2018-12-31T12:38:53.308Z,22.42
2018-12-31T12:41:22.429Z,21.60
2018-12-31T12:43:51.635Z,25.48
2018-12-31T12:46:20.771Z,18.87
2018-12-31T12:48:49.955Z,22.32
2018-12-31T12:51:38.518Z,19.30
2018-12-31T12:54:07.797Z,21.12
2018-12-31T12:56:36.934Z,23.57
2018-12-31T12:59:06.198Z,21.07
2018-12-31T13:01:35.329Z,21.05
2018-12-31T13:04:04.499Z,17.10
2018-12-31T13:06:33.798Z,22.15
2018-12-31T13:09:04.367Z,23.40
2018-12-31T13:11:33.486Z,17.50
2018-12-31T13:14:02.580Z,19.87
2018-12-31T13:16:31.710Z,21.65
2018-12-31T13:19:00.797Z,20.92
2018-12-31T13:21:29.921Z,23.55
2018-12-31T13:23:59.024Z,24.37
2018-12-31T13:26:28.153Z,18.50
2018-12-31T13:28:57.377Z,17.32
2018-12-31T13:31:26.517Z,25.48
2018-12-31T13:33:55.652Z,21.40
2018-12-31T13:36:25.255Z,26.20
2018-12-31T13:38:54.361Z,31.23
2018-12-31T13:41:23.500Z,21.30
2018-12-31T13:43:52.595Z,22.85
2018-12-31T13:46:21.736Z,24.47
2018-12-31T13:48:50.837Z,26.45
2018-12-31T13:51:21.596Z,23.30
2018-12-31T13:53:50.847Z,22.37
2018-12-31T13:56:20.002Z,23.10
2018-12-31T13:58:49.126Z,23.62
2018-12-31T14:01:18.261Z,26.25
2018-12-31T14:03:47.363Z,21.25
2018-12-31T14:06:16.965Z,24.10
2018-12-31T14:08:46.056Z,25.25
2018-12-31T14:11:15.258Z,22.62
2018-12-31T14:13:44.338Z,28.42
2018-12-31T14:16:13.489Z,22.98
2018-12-31T14:18:42.904Z,25.08
2018-12-31T14:21:12.062Z,33.20
2018-12-31T14:23:41.182Z,23.80
2018-12-31T14:26:10.365Z,26.95
2018-12-31T14:28:39.500Z,31.15
2018-12-31T14:31:08.765Z,28.05
2018-12-31T14:33:37.886Z,28.85
2018-12-31T14:36:07.392Z,25.95
2018-12-31T14:38:36.520Z,33.08
2018-12-31T14:41:05.625Z,33.23
2018-12-31T14:43:34.759Z,28.27
2018-12-31T14:46:03.877Z,33.38
2018-12-31T14:48:33.009Z,26.55
2018-12-31T14:51:02.108Z,33.88
2018-12-31T14:53:31.247Z,34.58
2018-12-31T14:56:00.403Z,33.40
2018-12-31T14:58:29.514Z,34.85
2018-12-31T15:00:58.618Z,32.48
2018-12-31T15:03:27.754Z,29.90
2018-12-31T15:05:56.862Z,38.33
2018-12-31T15:08:26.002Z,38.70
2018-12-31T15:10:55.227Z,39.65
2018-12-31T15:13:24.355Z,33.58
2018-12-31T15:15:53.636Z,38.92
2018-12-31T15:18:22.756Z,35.78
2018-12-31T15:20:51.845Z,43.35
2018-12-31T15:23:20.979Z,35.35
2018-12-31T15:25:50.070Z,37.15
2018-12-31T15:28:24.502Z,39.98
2018-12-31T15:30:55.031Z,43.00
2018-12-31T15:33:24.169Z,45.10
2018-12-31T15:35:53.637Z,45.05
2018-12-31T15:38:22.774Z,49.05
2018-12-31T15:40:52.340Z,41.80
2018-12-31T15:43:21.854Z,41.68
2018-12-31T15:45:50.955Z,38.40
2018-12-31T15:48:20.086Z,43.92
2018-12-31T15:50:49.186Z,44.63
2018-12-31T15:53:18.391Z,47.38
2018-12-31T15:56:07.359Z,43.90
2018-12-31T15:58:36.494Z,37.98
2018-12-31T16:01:05.602Z,42.17
2018-12-31T16:03:34.730Z,39.88
2018-12-31T16:06:03.840Z,42.35
2018-12-31T16:08:32.956Z,38.90
2018-12-31T16:11:02.060Z,33.95
2018-12-31T16:13:31.210Z,33.60
2018-12-31T16:16:00.934Z,35.03
2018-12-31T16:18:30.404Z,39.23
2018-12-31T16:20:59.538Z,36.77
2018-12-31T16:23:28.688Z,42.60
2018-12-31T16:25:57.798Z,38.05
2018-12-31T16:28:30.321Z,37.20
2018-12-31T16:31:02.400Z,39.83
2018-12-31T16:33:33.005Z,38.92
2018-12-31T16:36:02.155Z,43.05
2018-12-31T16:38:31.321Z,45.95
2018-12-31T16:41:00.604Z,39.88
2018-12-31T16:43:29.770Z,39.75
2018-12-31T16:45:58.882Z,47.00
2018-12-31T16:48:28.304Z,41.35
2018-12-31T16:50:57.402Z,43.23
2018-12-31T16:53:26.834Z,41.95
2018-12-31T16:55:56.530Z,36.38
2018-12-31T16:58:25.668Z,35.70
2018-12-31T17:00:54.876Z,42.33
2018-12-31T17:03:24.020Z,38.42
2018-12-31T17:05:53.400Z,37.67
2018-12-31T17:08:22.528Z,38.78
2018-12-31T17:10:51.629Z,46.35
2018-12-31T17:13:20.755Z,43.70
2018-12-31T17:15:49.886Z,41.48
2018-12-31T17:18:19.263Z,57.75
2018-12-31T17:20:48.398Z,114.28
2018-12-31T17:23:36.689Z,94.28
2018-12-31T17:26:05.790Z,85.45
2018-12-31T17:28:34.917Z,97.15
2018-12-31T17:31:04.091Z,129.57
2018-12-31T17:33:33.223Z,157.65
2018-12-31T17:36:02.340Z,117.80
2018-12-31T17:38:31.457Z,72.90
2018-12-31T17:41:00.554Z,67.85
2018-12-31T17:43:29.687Z,127.53
2018-12-31T17:45:58.784Z,101.97
2018-12-31T17:48:27.903Z,71.60
2018-12-31T17:50:57.009Z,72.92
2018-12-31T17:53:26.346Z,74.90
2018-12-31T17:55:55.478Z,74.72
2018-12-31T17:58:24.582Z,85.55
2018-12-31T18:00:53.715Z,71.53
2018-12-31T18:03:22.820Z,69.80
2018-12-31T18:05:52.129Z,67.67
2018-12-31T18:08:21.265Z,70.08
2018-12-31T18:10:50.379Z,63.87
2018-12-31T18:13:19.486Z,68.40
2018-12-31T18:15:48.609Z,75.90
2018-12-31T18:18:17.984Z,68.42
2018-12-31T18:20:47.110Z,61.85
2018-12-31T18:23:16.230Z,60.58
2018-12-31T18:25:45.357Z,72.87
2018-12-31T18:28:14.453Z,63.95
2018-12-31T18:30:43.755Z,71.90
2018-12-31T18:33:12.854Z,67.82
2018-12-31T18:35:41.985Z,76.10
2018-12-31T18:38:11.085Z,63.13
2018-12-31T18:40:40.218Z,73.20
2018-12-31T18:43:09.491Z,63.35
2018-12-31T18:45:38.620Z,66.15
2018-12-31T18:48:07.721Z,63.70
2018-12-31T18:50:36.842Z,65.20
2018-12-31T18:53:05.938Z,57.23
2018-12-31T18:55:35.347Z,60.20
2018-12-31T18:58:04.442Z,64.37
2018-12-31T19:00:33.581Z,64.95
2018-12-31T19:03:02.682Z,67.62
2018-12-31T19:05:31.801Z,63.13
2018-12-31T19:08:01.174Z,64.12
2018-12-31T19:10:30.329Z,59.13
2018-12-31T19:12:59.427Z,58.40
2018-12-31T19:15:28.554Z,60.38
2018-12-31T19:17:57.654Z,56.65
2018-12-31T19:20:27.163Z,58.00
2018-12-31T19:22:56.270Z,58.42
2018-12-31T19:25:25.386Z,58.92
2018-12-31T19:27:54.496Z,63.85
2018-12-31T19:30:23.617Z,56.23
2018-12-31T19:32:52.995Z,66.60
2018-12-31T19:35:22.117Z,62.48
2018-12-31T19:37:51.211Z,62.70
2018-12-31T19:40:20.338Z,64.25
2018-12-31T19:42:49.507Z,73.22
2018-12-31T19:45:18.624Z,75.30
2018-12-31T19:47:47.823Z,72.00
2018-12-31T19:50:16.921Z,88.52
2018-12-31T19:52:46.019Z,74.30
2018-12-31T19:55:15.122Z,83.25
2018-12-31T19:57:44.247Z,87.25
2018-12-31T20:00:13.369Z,112.55
2018-12-31T20:02:42.492Z,96.08
2018-12-31T20:05:11.586Z,95.25
2018-12-31T20:07:40.715Z,99.95
2018-12-31T20:10:09.818Z,89.58
2018-12-31T20:12:38.941Z,94.55
2018-12-31T20:15:08.040Z,97.47
2018-12-31T20:17:37.156Z,92.47
2018-12-31T20:20:06.537Z,99.67
2018-12-31T20:22:35.660Z,107.30
2018-12-31T20:25:05.242Z,93.75
2018-12-31T20:27:34.370Z,93.47
2018-12-31T20:30:03.636Z,91.72
2018-12-31T20:32:32.757Z,99.10
2018-12-31T20:35:01.870Z,98.07
2018-12-31T20:37:31.262Z,113.35
2018-12-31T20:40:00.373Z,105.00
2018-12-31T20:42:29.504Z,108.47
2018-12-31T20:44:58.607Z,108.37
2018-12-31T20:47:27.734Z,108.37
2018-12-31T20:49:56.911Z,97.92
2018-12-31T20:52:26.126Z,105.75
2018-12-31T20:54:55.216Z,130.27
2018-12-31T20:57:24.337Z,152.05
2018-12-31T20:59:53.438Z,149.15
2018-12-31T21:02:22.581Z,138.80
2018-12-31T21:04:52.022Z,148.65
2018-12-31T21:07:21.143Z,121.85
2018-12-31T21:09:50.248Z,122.28
2018-12-31T21:12:19.375Z,123.65
2018-12-31T21:14:48.480Z,130.78
2018-12-31T21:17:17.882Z,138.68
2018-12-31T21:19:46.988Z,126.30
2018-12-31T21:22:16.126Z,111.77
2018-12-31T21:24:45.225Z,90.07
2018-12-31T21:27:14.347Z,92.53
2018-12-31T21:29:43.725Z,89.35
2018-12-31T21:32:12.851Z,86.70
2018-12-31T21:34:41.959Z,87.45
2018-12-31T21:37:11.458Z,93.15
2018-12-31T21:39:40.563Z,110.60
2018-12-31T21:42:09.690Z,105.75
2018-12-31T21:44:38.794Z,94.97
2018-12-31T21:47:07.918Z,87.85
2018-12-31T21:49:37.024Z,78.90
2018-12-31T21:52:06.802Z,69.17
2018-12-31T21:54:55.323Z,74.17
2018-12-31T21:57:43.877Z,75.42
2018-12-31T22:00:12.978Z,69.62
2018-12-31T22:02:42.281Z,62.10
2018-12-31T22:05:14.396Z,70.95
2018-12-31T22:07:43.504Z,66.85
2018-12-31T22:10:12.696Z,69.32
2018-12-31T22:12:41.805Z,71.17
2018-12-31T22:15:10.907Z,70.05
2018-12-31T22:17:40.025Z,72.32
2018-12-31T22:20:09.998Z,89.47
2018-12-31T22:22:39.126Z,95.35
2018-12-31T22:25:08.228Z,95.72
2018-12-31T22:27:37.619Z,80.15
2018-12-31T22:30:07.920Z,77.60
2018-12-31T22:32:37.041Z,78.62
2018-12-31T22:35:06.201Z,74.53
2018-12-31T22:37:35.330Z,71.33
2018-12-31T22:40:04.755Z,65.45
2018-12-31T22:42:33.940Z,60.33
2018-12-31T22:45:03.051Z,81.40
2018-12-31T22:47:32.177Z,78.90
2018-12-31T22:50:01.271Z,71.82
2018-12-31T22:52:30.672Z,64.87
2018-12-31T22:54:59.998Z,57.25
2018-12-31T22:57:29.227Z,61.02
2018-12-31T22:59:58.332Z,57.70
2018-12-31T23:02:27.461Z,55.75
2018-12-31T23:04:56.738Z,63.90
2018-12-31T23:07:25.893Z,138.90
2018-12-31T23:09:54.972Z,182.35
2018-12-31T23:12:24.371Z,236.30
2018-12-31T23:14:53.475Z,432.27
2018-12-31T23:17:22.794Z,452.40
2018-12-31T23:19:51.892Z,397.35
2018-12-31T23:22:21.026Z,274.48
2018-12-31T23:24:50.141Z,207.25
2018-12-31T23:27:19.264Z,209.50
2018-12-31T23:29:48.754Z,180.90
2018-12-31T23:32:17.889Z,187.80
2018-12-31T23:34:47.072Z,183.57
2018-12-31T23:37:16.180Z,144.45
2018-12-31T23:39:45.320Z,117.77
2018-12-31T23:42:14.846Z,114.03
2018-12-31T23:44:43.975Z,133.67
2018-12-31T23:47:13.072Z,114.15
2018-12-31T23:49:42.202Z,118.67
2018-12-31T23:52:11.331Z,104.30
2018-12-31T23:54:40.835Z,107.05
2018-12-31T23:57:09.944Z,105.37
2018-12-31T23:59:39.074Z,106.85
